Time,TemperatureF,DewpointF,PressureIn,WindDirection,WindDirectionDegrees,WindSpeedMPH,WindSpeedGustMPH,Humidity,HourlyPrecipIn,Conditions,Clouds,dailyrainin,SoftwareType,DateUTC
2013-01-27 00:00:00,60.6,56.7,30.26,NNW,342,0.0,0.0,87,0.00,CLR,OVC,0.00,WeatherDisplay:10.37,2013-01-27 05:00:00,
2013-01-27 00:01:00,60.5,56.6,30.26,NNW,342,0.0,0.0,87,0.00,CLR,OVC,0.00,WeatherDisplay:10.37,2013-01-27 05:01:00,
2013-01-27 00:03:00,60.5,56.6,30.26,NNW,342,0.0,0.0,87,0.00,CLR,OVC,0.00,WeatherDisplay:10.37,2013-01-27 05:03:00,
2013-01-27 00:08:00,60.4,56.8,30.26,NNW,342,0.0,0.0,88,0.00,CLR,OVC,0.00,WeatherDisplay:10.37,2013-01-27 05:08:00,
2013-01-27 00:13:00,60.3,56.7,30.26,NNW,342,0.0,0.0,88,0.00,CLR,OVC,0.00,WeatherDisplay:10.37,2013-01-27 05:13:00,
2013-01-27 00:18:00,60.2,56.6,30.26,NNW,342,0.0,0.0,88,0.00,CLR,OVC,0.00,WeatherDisplay:10.37,2013-01-27 05:18:00,
2013-01-27 00:23:00,60.1,56.5,30.26,NNW,342,0.0,0.0,88,0.00,CLR,OVC,0.00,WeatherDisplay:10.37,2013-01-27 05:23:00,
2013-01-27 00:28:00,60.0,56.4,30.26,NNW,342,0.0,0.0,88,0.00,CLR,OVC,0.00,WeatherDisplay:10.37,2013-01-27 05:28:00,
2013-01-27 00:33:00,59.9,56.3,30.26,NNW,342,0.0,0.0,88,0.00,CLR,OVC,0.00,WeatherDisplay:10.37,2013-01-27 05:33:00,
2013-01-27 00:38:00,59.7,56.1,30.26,NNW,342,0.0,0.0,88,0.00,CLR,OVC,0.00,WeatherDisplay:10.37,2013-01-27 05:38:00,
2013-01-27 00:43:00,59.7,56.1,30.26,NNW,342,0.0,0.0,88,0.00,CLR,OVC,0.00,WeatherDisplay:10.37,2013-01-27 05:43:00,
2013-01-27 00:48:00,59.5,55.9,30.26,NNW,342,0.0,0.0,88,0.00,CLR,OVC,0.00,WeatherDisplay:10.37,2013-01-27 05:48:00,
2013-01-27 00:54:00,59.5,55.9,30.26,NNW,342,0.0,0.0,88,0.00,CLR,OVC,0.00,WeatherDisplay:10.37,2013-01-27 05:54:00,
2013-01-27 00:59:00,59.5,55.9,30.26,NNW,342,0.0,0.0,88,0.00,CLR,OVC,0.00,WeatherDisplay:10.37,2013-01-27 05:59:00,
2013-01-27 01:04:00,59.5,55.9,30.26,NNW,342,0.0,0.0,88,0.00,CLR,OVC,0.00,WeatherDisplay:10.37,2013-01-27 06:04:00,
2013-01-27 01:09:00,59.4,55.8,30.26,NNW,342,0.0,0.0,88,0.00,CLR,OVC,0.00,WeatherDisplay:10.37,2013-01-27 06:09:00,
2013-01-27 01:14:00,59.4,55.8,30.27,NNW,342,0.0,0.0,88,0.00,CLR,OVC,0.00,WeatherDisplay:10.37,2013-01-27 06:14:00,
2013-01-27 01:19:00,59.3,55.7,30.27,NNW,342,0.0,0.0,88,0.00,CLR,OVC,0.00,WeatherDisplay:10.37,2013-01-27 06:19:00,
2013-01-27 01:24:00,59.3,55.7,30.27,NNW,342,0.0,0.0,88,0.00,CLR,OVC,0.00,WeatherDisplay:10.37,2013-01-27 06:24:00,
2013-01-27 01:29:00,59.2,55.6,30.27,NNW,342,0.0,0.0,88,0.00,CLR,OVC,0.00,WeatherDisplay:10.37,2013-01-27 06:29:00,
2013-01-27 01:34:00,59.2,55.6,30.27,NNW,342,0.0,0.0,88,0.00,CLR,OVC,0.00,WeatherDisplay:10.37,2013-01-27 06:34:00,
2013-01-27 01:39:00,59.1,55.5,30.27,NNW,342,0.0,0.0,88,0.00,CLR,OVC,0.00,WeatherDisplay:10.37,2013-01-27 06:39:00,
2013-01-27 01:44:00,59.1,55.5,30.27,NNW,342,0.0,0.0,88,0.00,CLR,OVC,0.00,WeatherDisplay:10.37,2013-01-27 06:44:00,
2013-01-27 01:49:00,59.0,55.4,30.27,NNW,342,0.0,0.0,88,0.00,CLR,OVC,0.00,WeatherDisplay:10.37,2013-01-27 06:49:00,
2013-01-27 01:54:00,59.0,55.4,30.26,NNW,342,0.0,0.0,88,0.00,CLR,OVC,0.00,WeatherDisplay:10.37,2013-01-27 06:54:00,
2013-01-27 01:59:00,59.0,55.4,30.27,NNW,342,0.0,0.0,88,0.00,CLR,OVC,0.00,WeatherDisplay:10.37,2013-01-27 06:59:00,
2013-01-27 02:04:00,59.0,55.4,30.26,NNW,342,0.0,0.0,88,0.00,CLR,OVC,0.00,WeatherDisplay:10.37,2013-01-27 07:04:00,
2013-01-27 02:09:00,59.0,55.4,30.26,NNW,342,0.0,0.0,88,0.00,CLR,OVC,0.00,WeatherDisplay:10.37,2013-01-27 07:09:00,
2013-01-27 02:14:00,59.0,55.8,30.26,NNW,342,0.0,0.0,89,0.00,CLR,OVC,0.00,WeatherDisplay:10.37,2013-01-27 07:14:00,
2013-01-27 02:19:00,59.0,55.8,30.26,NNW,342,0.0,0.0,89,0.00,CLR,OVC,0.00,WeatherDisplay:10.37,2013-01-27 07:19:00,
2013-01-27 02:24:00,59.0,55.8,30.26,NNW,342,0.0,0.0,89,0.00,CLR,OVC,0.00,WeatherDisplay:10.37,2013-01-27 07:24:00,
2013-01-27 02:29:00,58.9,55.7,30.26,NNW,342,0.0,0.0,89,0.00,CLR,OVC,0.00,WeatherDisplay:10.37,2013-01-27 07:29:00,
2013-01-27 02:34:00,58.8,55.6,30.26,NNW,342,0.0,0.0,89,0.00,CLR,OVC,0.00,WeatherDisplay:10.37,2013-01-27 07:34:00,
2013-01-27 02:39:00,58.7,55.5,30.26,NNW,342,0.0,0.0,89,0.00,CLR,OVC,0.00,WeatherDisplay:10.37,2013-01-27 07:39:00,
2013-01-27 02:44:00,58.7,55.5,30.26,NNW,342,0.0,0.0,89,0.00,CLR,OVC,0.00,WeatherDisplay:10.37,2013-01-27 07:44:00,
2013-01-27 02:49:00,58.5,55.3,30.26,NNW,342,0.0,0.0,89,0.00,CLR,OVC,0.00,WeatherDisplay:10.37,2013-01-27 07:49:00,
2013-01-27 02:54:00,58.4,55.2,30.26,NNW,342,0.0,0.0,89,0.00,CLR,OVC,0.00,WeatherDisplay:10.37,2013-01-27 07:54:00,
2013-01-27 02:59:00,58.3,55.4,30.26,NNW,342,0.0,0.0,90,0.00,CLR,OVC,0.00,WeatherDisplay:10.37,2013-01-27 07:59:00,
2013-01-27 03:04:00,58.3,55.1,30.26,NNW,342,0.0,0.0,89,0.00,CLR,OVC,0.00,WeatherDisplay:10.37,2013-01-27 08:04:00,
2013-01-27 03:09:00,58.3,55.1,30.26,NNW,342,0.0,0.0,89,0.00,CLR,OVC,0.00,WeatherDisplay:10.37,2013-01-27 08:09:00,
2013-01-27 03:14:00,58.2,55.0,30.26,NNW,342,0.0,0.0,89,0.00,CLR,OVC,0.00,WeatherDisplay:10.37,2013-01-27 08:14:00,
2013-01-27 03:19:00,58.0,54.8,30.26,NNW,342,0.0,0.0,89,0.00,CLR,OVC,0.00,WeatherDisplay:10.37,2013-01-27 08:19:00,
2013-01-27 03:24:00,58.0,54.8,30.26,NNW,342,0.0,0.0,89,0.00,CLR,OVC,0.00,WeatherDisplay:10.37,2013-01-27 08:24:00,
2013-01-27 03:29:00,57.9,55.0,30.26,NNW,342,0.0,0.0,90,0.00,CLR,OVC,0.00,WeatherDisplay:10.37,2013-01-27 08:29:00,
2013-01-27 03:34:00,57.8,54.9,30.26,NNW,342,0.0,0.0,90,0.00,CLR,OVC,0.00,WeatherDisplay:10.37,2013-01-27 08:34:00,
2013-01-27 03:39:00,57.8,54.9,30.26,NNW,342,0.0,0.0,90,0.00,CLR,OVC,0.00,WeatherDisplay:10.37,2013-01-27 08:39:00,
2013-01-27 03:44:00,57.6,54.7,30.26,NNW,342,0.0,0.0,90,0.00,CLR,OVC,0.00,WeatherDisplay:10.37,2013-01-27 08:44:00,
2013-01-27 03:49:00,57.5,54.6,30.26,NNW,342,0.0,0.0,90,0.00,CLR,OVC,0.00,WeatherDisplay:10.37,2013-01-27 08:49:00,
2013-01-27 03:54:00,57.4,54.5,30.26,NNW,342,0.0,0.0,90,0.00,CLR,OVC,0.00,WeatherDisplay:10.37,2013-01-27 08:54:00,
2013-01-27 03:59:00,57.4,54.5,30.26,NNW,342,0.0,0.0,90,0.00,CLR,OVC,0.00,WeatherDisplay:10.37,2013-01-27 08:59:00,
2013-01-27 04:04:00,57.3,54.4,30.26,NNW,342,0.0,0.0,90,0.00,CLR,OVC,0.00,WeatherDisplay:10.37,2013-01-27 09:04:00,
2013-01-27 04:09:00,57.3,54.4,30.26,NNW,342,0.0,0.0,90,0.00,CLR,OVC,0.00,WeatherDisplay:10.37,2013-01-27 09:09:00,
2013-01-27 04:14:00,57.3,54.4,30.26,NNW,342,0.0,0.0,90,0.00,CLR,OVC,0.00,WeatherDisplay:10.37,2013-01-27 09:14:00,
2013-01-27 04:19:00,57.2,54.3,30.26,NNW,342,0.0,0.0,90,0.00,CLR,OVC,0.00,WeatherDisplay:10.37,2013-01-27 09:19:00,
2013-01-27 04:24:00,57.2,54.3,30.26,NNW,342,0.0,0.0,90,0.00,CLR,OVC,0.00,WeatherDisplay:10.37,2013-01-27 09:24:00,
2013-01-27 04:29:00,57.2,54.0,30.26,NNW,342,0.0,0.0,89,0.00,CLR,OVC,0.00,WeatherDisplay:10.37,2013-01-27 09:29:00,
2013-01-27 04:34:00,57.2,54.3,30.26,NNW,342,0.0,0.0,90,0.00,CLR,OVC,0.00,WeatherDisplay:10.37,2013-01-27 09:34:00,
2013-01-27 04:39:00,57.3,54.4,30.26,North,10,0.5,1.6,90,0.00,CLR,OVC,0.00,WeatherDisplay:10.37,2013-01-27 09:39:00,
2013-01-27 04:44:00,57.2,54.3,30.26,NNE,28,0.0,0.0,90,0.00,CLR,OVC,0.00,WeatherDisplay:10.37,2013-01-27 09:44:00,
2013-01-27 04:49:00,57.2,54.3,30.26,NNE,30,0.3,1.1,90,0.00,CLR,OVC,0.00,WeatherDisplay:10.37,2013-01-27 09:49:00,
2013-01-27 04:54:00,57.2,54.3,30.26,NNE,30,0.0,0.0,90,0.00,CLR,OVC,0.00,WeatherDisplay:10.37,2013-01-27 09:54:00,
2013-01-27 04:59:00,57.3,54.4,30.26,NNE,30,0.0,0.0,90,0.00,CLR,OVC,0.00,WeatherDisplay:10.37,2013-01-27 09:59:00,
2013-01-27 05:04:00,57.4,54.5,30.26,NE,54,0.3,1.4,90,0.00,CLR,OVC,0.00,WeatherDisplay:10.37,2013-01-27 10:04:00,
2013-01-27 05:09:00,57.4,54.5,30.26,NE,42,0.0,0.0,90,0.00,CLR,OVC,0.00,WeatherDisplay:10.37,2013-01-27 10:09:00,
2013-01-27 05:14:00,57.3,54.4,30.26,NE,42,0.0,0.0,90,0.00,CLR,OVC,0.00,WeatherDisplay:10.37,2013-01-27 10:14:00,
2013-01-27 05:19:00,57.4,54.8,30.26,NE,42,0.0,0.0,91,0.00,CLR,OVC,0.00,WeatherDisplay:10.37,2013-01-27 10:19:00,
2013-01-27 05:24:00,57.4,54.8,30.26,NE,42,0.0,0.0,91,0.00,CLR,OVC,0.00,WeatherDisplay:10.37,2013-01-27 10:24:00,
2013-01-27 05:29:00,57.3,54.7,30.26,NE,42,0.0,0.0,91,0.00,CLR,OVC,0.00,WeatherDisplay:10.37,2013-01-27 10:29:00,
2013-01-27 05:34:00,57.2,54.6,30.26,NE,42,0.0,0.0,91,0.00,CLR,OVC,0.00,WeatherDisplay:10.37,2013-01-27 10:34:00,
2013-01-27 05:39:00,57.0,54.4,30.27,NE,42,0.0,0.0,91,0.00,CLR,OVC,0.00,WeatherDisplay:10.37,2013-01-27 10:39:00,
2013-01-27 05:44:00,57.0,54.4,30.27,NE,42,0.0,0.0,91,0.00,CLR,OVC,0.00,WeatherDisplay:10.37,2013-01-27 10:44:00,
2013-01-27 05:49:00,56.8,54.2,30.27,NE,42,0.0,0.0,91,0.00,CLR,OVC,0.00,WeatherDisplay:10.37,2013-01-27 10:49:00,
2013-01-27 05:54:00,56.6,54.0,30.27,NE,42,0.0,0.0,91,0.00,CLR,OVC,0.00,WeatherDisplay:10.37,2013-01-27 10:54:00,
2013-01-27 05:59:00,56.5,53.9,30.27,NE,42,0.0,0.0,91,0.00,CLR,OVC,0.00,WeatherDisplay:10.37,2013-01-27 10:59:00,
2013-01-27 06:04:00,56.4,53.8,30.28,NE,42,0.0,0.0,91,0.00,CLR,OVC,0.00,WeatherDisplay:10.37,2013-01-27 11:04:00,
2013-01-27 06:09:00,56.2,53.6,30.28,NE,42,0.0,0.0,91,0.00,CLR,OVC,0.00,WeatherDisplay:10.37,2013-01-27 11:09:00,
2013-01-27 06:14:00,56.1,53.5,30.28,SSE,152,4.0,4.6,91,0.00,CLR,OVC,0.00,WeatherDisplay:10.37,2013-01-27 11:14:00,
2013-01-27 06:19:00,55.9,53.6,30.29,SE,143,2.7,3.5,92,0.00,CLR,OVC,0.00,WeatherDisplay:10.37,2013-01-27 11:19:00,
2013-01-27 06:24:00,56.1,54.1,30.29,SE,141,1.7,2.3,93,0.00,CLR,OVC,0.00,WeatherDisplay:10.37,2013-01-27 11:24:00,
2013-01-27 06:29:00,56.5,54.5,30.29,East,100,3.3,3.5,93,0.00,CLR,OVC,0.00,WeatherDisplay:10.37,2013-01-27 11:29:00,
2013-01-27 06:34:00,56.8,55.1,30.29,ESE,102,3.5,5.8,94,0.00,CLR,OVC,0.00,WeatherDisplay:10.37,2013-01-27 11:34:00,
2013-01-27 06:39:00,57.1,55.7,30.29,ESE,107,3.3,3.5,95,0.00,CLR,OVC,0.00,WeatherDisplay:10.37,2013-01-27 11:39:00,
2013-01-27 06:44:00,57.3,55.9,30.29,SE,126,2.2,3.5,95,0.01,RA,OVC,0.01,WeatherDisplay:10.37,2013-01-27 11:44:00,
2013-01-27 06:49:00,57.6,56.2,30.30,ESE,103,1.2,2.3,95,0.01,RA,OVC,0.01,WeatherDisplay:10.37,2013-01-27 11:49:00,
2013-01-27 06:54:00,57.5,56.1,30.30,SE,133,2.4,4.6,95,0.01,CLR,OVC,0.01,WeatherDisplay:10.37,2013-01-27 11:54:00,
2013-01-27 06:59:00,57.5,56.1,30.30,SE,143,2.1,3.5,95,0.01,CLR,OVC,0.01,WeatherDisplay:10.37,2013-01-27 11:59:00,
2013-01-27 07:04:00,57.5,56.1,30.30,ESE,114,0.8,3.8,95,0.01,CLR,OVC,0.01,WeatherDisplay:10.37,2013-01-27 12:04:00,
2013-01-27 07:09:00,57.7,56.3,30.30,SSE,148,3.6,3.6,95,0.01,CLR,OVC,0.01,WeatherDisplay:10.37,2013-01-27 12:09:00,
2013-01-27 07:14:00,57.7,56.6,30.30,ESE,119,1.9,2.3,96,0.01,CLR,OVC,0.01,WeatherDisplay:10.37,2013-01-27 12:14:00,
2013-01-27 07:19:00,57.7,56.6,30.30,ESE,117,1.0,3.5,96,0.01,CLR,OVC,0.01,WeatherDisplay:10.37,2013-01-27 12:19:00,
2013-01-27 07:24:00,57.9,56.8,30.30,ENE,78,0.4,1.1,96,0.01,CLR,OVC,0.01,WeatherDisplay:10.37,2013-01-27 12:24:00,
2013-01-27 07:29:00,58.0,56.9,30.30,SSE,148,3.2,3.5,96,0.01,CLR,OVC,0.01,WeatherDisplay:10.37,2013-01-27 12:29:00,
2013-01-27 07:34:00,57.9,56.8,30.30,ESE,113,1.6,2.3,96,0.01,CLR,OVC,0.01,WeatherDisplay:10.37,2013-01-27 12:34:00,
2013-01-27 07:39:00,57.8,56.7,30.30,ESE,103,0.9,3.5,96,0.01,CLR,OVC,0.01,WeatherDisplay:10.37,2013-01-27 12:39:00,
2013-01-27 07:44:00,58.0,56.9,30.30,East,90,1.4,3.5,96,0.00,CLR,OVC,0.01,WeatherDisplay:10.37,2013-01-27 12:44:00,
2013-01-27 07:49:00,58.1,57.0,30.30,NE,41,0.0,1.1,96,0.00,CLR,OVC,0.01,WeatherDisplay:10.37,2013-01-27 12:49:00,
2013-01-27 07:54:00,58.1,57.0,30.30,East,85,2.0,3.5,96,0.00,CLR,OVC,0.01,WeatherDisplay:10.37,2013-01-27 12:54:00,
2013-01-27 07:59:00,58.3,57.2,30.30,East,86,0.0,2.3,96,0.00,CLR,OVC,0.01,WeatherDisplay:10.37,2013-01-27 12:59:00,
2013-01-27 08:04:00,58.6,57.5,30.30,ESE,109,0.0,0.0,96,0.00,CLR,OVC,0.01,WeatherDisplay:10.37,2013-01-27 13:04:00,
2013-01-27 08:09:00,58.8,57.7,30.30,ENE,76,0.0,1.1,96,0.00,CLR,OVC,0.01,WeatherDisplay:10.37,2013-01-27 13:09:00,
2013-01-27 08:14:00,59.0,57.9,30.31,ENE,78,0.0,0.0,96,0.00,CLR,OVC,0.01,WeatherDisplay:10.37,2013-01-27 13:14:00,
2013-01-27 08:19:00,59.1,58.0,30.31,ENE,65,1.0,4.6,96,0.00,CLR,OVC,0.01,WeatherDisplay:10.37,2013-01-27 13:19:00,
2013-01-27 08:24:00,59.3,58.2,30.31,East,79,0.0,0.0,96,0.00,CLR,OVC,0.01,WeatherDisplay:10.37,2013-01-27 13:24:00,
2013-01-27 08:29:00,59.5,58.4,30.31,ENE,65,2.0,2.3,96,0.00,CLR,OVC,0.01,WeatherDisplay:10.37,2013-01-27 13:29:00,
2013-01-27 08:34:00,59.8,58.7,30.31,NE,45,2.1,2.3,96,0.00,CLR,OVC,0.01,WeatherDisplay:10.37,2013-01-27 13:34:00,
2013-01-27 08:39:00,60.0,58.9,30.31,NE,52,4.1,5.8,96,0.00,CLR,OVC,0.01,WeatherDisplay:10.37,2013-01-27 13:39:00,
2013-01-27 08:44:00,60.4,59.3,30.31,NE,41,0.6,2.3,96,0.00,CLR,OVC,0.01,WeatherDisplay:10.37,2013-01-27 13:44:00,
2013-01-27 08:49:00,60.7,59.6,30.32,ENE,61,2.2,2.3,96,0.00,CLR,OVC,0.01,WeatherDisplay:10.37,2013-01-27 13:49:00,
2013-01-27 08:54:00,61.2,60.1,30.32,East,82,3.1,4.4,96,0.00,CLR,OVC,0.01,WeatherDisplay:10.37,2013-01-27 13:54:00,
2013-01-27 08:59:00,61.5,60.3,30.32,NE,54,2.4,3.6,96,0.00,CLR,OVC,0.01,WeatherDisplay:10.37,2013-01-27 13:59:00,
2013-01-27 09:04:00,61.7,60.5,30.32,NE,35,2.7,4.6,96,0.00,CLR,OVC,0.01,WeatherDisplay:10.37,2013-01-27 14:04:00,
2013-01-27 09:09:00,62.2,61.0,30.32,SSE,148,1.6,3.5,96,0.00,CLR,OVC,0.01,WeatherDisplay:10.37,2013-01-27 14:09:00,
2013-01-27 09:14:00,62.5,61.3,30.32,NE,47,2.0,3.2,96,0.00,CLR,OVC,0.01,WeatherDisplay:10.37,2013-01-27 14:14:00,
2013-01-27 09:19:00,62.6,61.4,30.32,NE,52,4.3,4.6,96,0.00,CLR,OVC,0.01,WeatherDisplay:10.37,2013-01-27 14:19:00,
2013-01-27 09:24:00,63.0,61.8,30.32,ENE,72,4.5,6.9,96,0.00,CLR,OVC,0.01,WeatherDisplay:10.37,2013-01-27 14:24:00,
2013-01-27 09:29:00,63.3,61.8,30.32,ENE,69,2.5,4.6,95,0.00,CLR,OVC,0.01,WeatherDisplay:10.37,2013-01-27 14:29:00,
2013-01-27 09:34:00,63.5,62.0,30.32,NE,45,4.4,6.9,95,0.00,CLR,OVC,0.01,WeatherDisplay:10.37,2013-01-27 14:34:00,
2013-01-27 09:39:00,64.0,62.5,30.32,NNE,18,2.7,5.8,95,0.00,CLR,OVC,0.01,WeatherDisplay:10.37,2013-01-27 14:39:00,
2013-01-27 09:44:00,64.4,62.9,30.33,ESE,102,2.3,6.9,95,0.00,CLR,OVC,0.01,WeatherDisplay:10.37,2013-01-27 14:44:00,
2013-01-27 09:49:00,64.5,63.0,30.32,NE,38,3.8,5.8,95,0.00,CLR,OVC,0.01,WeatherDisplay:10.37,2013-01-27 14:49:00,
2013-01-27 09:54:00,65.1,63.6,30.33,NE,55,4.4,9.2,95,0.00,CLR,OVC,0.01,WeatherDisplay:10.37,2013-01-27 14:54:00,
2013-01-27 09:59:00,65.1,63.3,30.33,NNE,30,6.0,9.2,94,0.00,CLR,OVC,0.01,WeatherDisplay:10.37,2013-01-27 14:59:00,
2013-01-27 10:04:00,65.4,63.3,30.33,ENE,64,3.9,6.9,93,0.00,CLR,OVC,0.01,WeatherDisplay:10.37,2013-01-27 15:04:00,
2013-01-27 10:09:00,66.0,63.3,30.33,East,82,4.4,5.8,91,0.00,CLR,OVC,0.01,WeatherDisplay:10.37,2013-01-27 15:09:00,
2013-01-27 10:14:00,66.1,63.1,30.33,ENE,71,5.4,8.1,90,0.00,CLR,OVC,0.01,WeatherDisplay:10.37,2013-01-27 15:14:00,
2013-01-27 10:19:00,66.2,62.2,30.33,NE,48,5.1,10.4,87,0.00,CLR,OVC,0.01,WeatherDisplay:10.37,2013-01-27 15:19:00,
2013-01-27 10:24:00,66.4,62.1,30.33,ENE,72,8.2,10.4,86,0.00,CLR,OVC,0.01,WeatherDisplay:10.37,2013-01-27 15:24:00,
2013-01-27 10:29:00,66.9,62.2,30.33,ENE,61,5.0,9.4,85,0.00,CLR,OVC,0.01,WeatherDisplay:10.37,2013-01-27 15:29:00,
2013-01-27 10:34:00,67.2,61.9,30.33,ESE,114,3.6,8.1,83,0.00,CLR,OVC,0.01,WeatherDisplay:10.37,2013-01-27 15:34:00,
2013-01-27 10:39:00,67.7,61.7,30.34,ESE,123,5.7,8.1,81,0.00,CLR,OVC,0.01,WeatherDisplay:10.37,2013-01-27 15:39:00,
2013-01-27 10:44:00,68.2,61.8,30.34,SE,124,4.4,9.2,80,0.00,CLR,OVC,0.01,WeatherDisplay:10.37,2013-01-27 15:44:00,
2013-01-27 10:49:00,68.5,61.4,30.34,East,85,3.8,6.9,78,0.00,CLR,OVC,0.01,WeatherDisplay:10.37,2013-01-27 15:49:00,
2013-01-27 10:54:00,68.8,61.3,30.34,NNE,31,5.2,8.1,77,0.00,CLR,OVC,0.01,WeatherDisplay:10.37,2013-01-27 15:54:00,
2013-01-27 10:59:00,69.2,61.7,30.33,ESE,109,4.9,9.2,77,0.00,CLR,OVC,0.01,WeatherDisplay:10.37,2013-01-27 15:59:00,
2013-01-27 11:04:00,69.6,61.7,30.34,SE,131,3.8,5.8,76,0.00,CLR,OVC,0.01,WeatherDisplay:10.37,2013-01-27 16:04:00,
2013-01-27 11:09:00,69.9,61.2,30.33,NE,55,7.1,12.7,74,0.00,CLR,OVC,0.01,WeatherDisplay:10.37,2013-01-27 16:09:00,
2013-01-27 11:14:00,69.9,61.2,30.34,NNE,14,2.7,5.8,74,0.00,CLR,OVC,0.01,WeatherDisplay:10.37,2013-01-27 16:14:00,
2013-01-27 11:19:00,70.2,61.1,30.34,SE,134,5.7,6.9,73,0.00,CLR,OVC,0.01,WeatherDisplay:10.37,2013-01-27 16:19:00,
2013-01-27 11:24:00,70.4,61.3,30.33,SSE,168,5.1,8.1,73,0.00,CLR,OVC,0.01,WeatherDisplay:10.37,2013-01-27 16:24:00,
2013-01-27 11:29:00,71.1,61.6,30.33,ESE,121,5.9,9.2,72,0.00,CLR,OVC,0.01,WeatherDisplay:10.37,2013-01-27 16:29:00,
2013-01-27 11:34:00,71.5,61.2,30.33,ESE,103,5.5,9.2,70,0.00,CLR,OVC,0.01,WeatherDisplay:10.37,2013-01-27 16:34:00,
2013-01-27 11:39:00,71.8,60.7,30.33,East,99,6.1,6.9,68,0.00,CLR,OVC,0.01,WeatherDisplay:10.37,2013-01-27 16:39:00,
2013-01-27 11:44:00,72.2,61.0,30.33,ESE,109,5.0,9.2,68,0.00,CLR,OVC,0.01,WeatherDisplay:10.37,2013-01-27 16:44:00,
2013-01-27 11:49:00,72.5,60.1,30.33,NE,56,6.5,10.4,65,0.00,CLR,OVC,0.01,WeatherDisplay:10.37,2013-01-27 16:49:00,
2013-01-27 11:54:00,72.8,60.3,30.32,SE,145,5.3,8.1,65,0.00,CLR,OVC,0.01,WeatherDisplay:10.37,2013-01-27 16:54:00,
2013-01-27 11:59:00,73.1,60.6,30.32,East,95,5.7,8.1,65,0.00,CLR,OVC,0.01,WeatherDisplay:10.37,2013-01-27 16:59:00,
2013-01-27 12:04:00,73.5,60.6,30.32,NE,49,3.5,6.9,64,0.00,CLR,OVC,0.01,WeatherDisplay:10.37,2013-01-27 17:04:00,
2013-01-27 12:09:00,73.9,60.5,30.32,NE,34,3.8,4.6,63,0.00,CLR,OVC,0.01,WeatherDisplay:10.37,2013-01-27 17:09:00,
2013-01-27 12:14:00,74.4,60.5,30.32,NE,42,6.0,8.1,62,0.00,CLR,OVC,0.01,WeatherDisplay:10.37,2013-01-27 17:14:00,
2013-01-27 12:19:00,74.8,60.0,30.32,ESE,110,3.4,6.9,60,0.00,CLR,OVC,0.01,WeatherDisplay:10.37,2013-01-27 17:19:00,
2013-01-27 12:24:00,75.1,60.3,30.31,SE,133,5.6,5.8,60,0.00,CLR,OVC,0.01,WeatherDisplay:10.37,2013-01-27 17:24:00,
2013-01-27 12:29:00,75.4,59.6,30.31,North,360,4.0,8.1,58,0.00,CLR,OVC,0.01,WeatherDisplay:10.37,2013-01-27 17:29:00,
2013-01-27 12:34:00,75.8,59.0,30.31,ESE,110,4.7,6.9,56,0.00,CLR,OVC,0.01,WeatherDisplay:10.37,2013-01-27 17:34:00,
2013-01-27 12:39:00,76.0,58.7,30.31,ESE,120,3.7,5.8,55,0.00,CLR,OVC,0.01,WeatherDisplay:10.37,2013-01-27 17:39:00,
2013-01-27 12:44:00,76.4,58.0,30.30,SSE,150,4.6,8.1,53,0.00,CLR,OVC,0.01,WeatherDisplay:10.37,2013-01-27 17:44:00,
2013-01-27 12:49:00,77.0,58.6,30.30,SSE,158,7.4,9.2,53,0.00,CLR,OVC,0.01,WeatherDisplay:10.37,2013-01-27 17:49:00,
2013-01-27 12:55:00,77.2,57.7,30.30,SE,131,6.0,11.0,51,0.00,CLR,OVC,0.01,WeatherDisplay:10.37,2013-01-27 17:55:00,
2013-01-27 13:00:00,77.9,57.8,30.30,NE,38,6.3,9.2,50,0.00,CLR,OVC,0.01,WeatherDisplay:10.37,2013-01-27 18:00:00,
2013-01-27 13:05:00,78.2,57.5,30.29,ENE,78,4.2,8.1,49,0.00,CLR,OVC,0.01,WeatherDisplay:10.37,2013-01-27 18:05:00,
2013-01-27 13:10:00,78.8,58.6,30.29,ENE,73,4.9,9.2,50,0.00,CLR,OVC,0.01,WeatherDisplay:10.37,2013-01-27 18:10:00,
2013-01-27 13:15:00,79.0,58.2,30.29,East,96,5.0,9.2,49,0.00,CLR,OVC,0.01,WeatherDisplay:10.37,2013-01-27 18:15:00,
2013-01-27 13:20:00,79.3,59.0,30.28,ESE,119,5.7,8.1,50,0.00,CLR,OVC,0.01,WeatherDisplay:10.37,2013-01-27 18:20:00,
2013-01-27 13:25:00,79.7,58.8,30.28,ESE,123,5.7,8.1,49,0.00,CLR,OVC,0.01,WeatherDisplay:10.37,2013-01-27 18:25:00,
2013-01-27 13:30:00,80.0,58.5,30.28,SE,134,5.4,9.1,48,0.00,CLR,OVC,0.01,WeatherDisplay:10.37,2013-01-27 18:30:00,
2013-01-27 13:35:00,80.3,58.2,30.28,East,92,5.0,11.0,47,0.00,CLR,OVC,0.01,WeatherDisplay:10.37,2013-01-27 18:35:00,
2013-01-27 13:40:00,80.9,59.4,30.27,NNE,16,5.3,8.1,48,0.00,CLR,OVC,0.01,WeatherDisplay:10.37,2013-01-27 18:40:00,
2013-01-27 13:45:00,81.2,58.5,30.27,ENE,76,3.0,11.0,46,0.00,CLR,OVC,0.01,WeatherDisplay:10.37,2013-01-27 18:45:00,
2013-01-27 13:50:00,81.7,58.9,30.27,NNE,31,6.7,9.2,46,0.00,CLR,OVC,0.01,WeatherDisplay:10.37,2013-01-27 18:50:00,
2013-01-27 13:55:00,82.0,58.6,30.27,SE,128,3.8,6.9,45,0.00,CLR,OVC,0.01,WeatherDisplay:10.37,2013-01-27 18:55:00,
2013-01-27 14:00:00,82.3,57.6,30.27,East,79,4.9,9.2,43,0.00,CLR,OVC,0.01,WeatherDisplay:10.37,2013-01-27 19:00:00,
2013-01-27 14:05:00,82.4,58.3,30.27,ENE,78,6.0,10.0,44,0.00,CLR,OVC,0.01,WeatherDisplay:10.37,2013-01-27 19:05:00,
2013-01-27 14:10:00,82.7,57.9,30.27,East,88,3.4,6.9,43,0.00,CLR,OVC,0.01,WeatherDisplay:10.37,2013-01-27 19:10:00,
2013-01-27 14:15:00,83.0,57.6,30.26,East,93,5.0,10.0,42,0.00,CLR,OVC,0.01,WeatherDisplay:10.37,2013-01-27 19:15:00,
2013-01-27 14:20:00,83.2,56.4,30.26,SW,217,4.4,9.2,40,0.00,CLR,OVC,0.01,WeatherDisplay:10.37,2013-01-27 19:20:00,
2013-01-27 14:25:00,83.6,58.1,30.26,NE,51,3.8,9.2,42,0.00,CLR,OVC,0.01,WeatherDisplay:10.37,2013-01-27 19:25:00,
2013-01-27 14:30:00,84.1,57.9,30.26,East,80,6.5,8.1,41,0.00,CLR,OVC,0.01,WeatherDisplay:10.37,2013-01-27 19:30:00,
2013-01-27 14:35:00,84.4,57.4,30.26,South,185,4.0,9.2,40,0.00,CLR,OVC,0.01,WeatherDisplay:10.37,2013-01-27 19:35:00,
2013-01-27 14:40:00,84.5,57.5,30.26,East,100,3.4,8.1,40,0.00,CLR,OVC,0.01,WeatherDisplay:10.37,2013-01-27 19:40:00,
2013-01-27 14:45:00,85.0,58.0,30.26,SE,140,4.1,8.1,40,0.00,CLR,OVC,0.01,WeatherDisplay:10.37,2013-01-27 19:45:00,
2013-01-27 14:50:00,85.2,56.7,30.26,SSE,168,7.0,12.7,38,0.00,CLR,OVC,0.01,WeatherDisplay:10.37,2013-01-27 19:50:00,
2013-01-27 14:55:00,84.9,56.5,30.26,ESE,109,5.0,9.2,38,0.00,CLR,OVC,0.01,WeatherDisplay:10.37,2013-01-27 19:55:00,
2013-01-27 15:00:00,85.0,57.3,30.26,East,92,2.9,4.6,39,0.00,CLR,OVC,0.01,WeatherDisplay:10.37,2013-01-27 20:00:00,
2013-01-27 15:05:00,85.4,57.6,30.25,ESE,102,3.0,7.0,39,0.00,CLR,OVC,0.01,WeatherDisplay:10.37,2013-01-27 20:05:00,
2013-01-27 15:10:00,86.1,56.8,30.25,ESE,114,5.8,8.1,37,0.00,CLR,OVC,0.01,WeatherDisplay:10.37,2013-01-27 20:10:00,
2013-01-27 15:15:00,86.0,56.7,30.25,SE,126,7.2,9.2,37,0.00,CLR,OVC,0.01,WeatherDisplay:10.37,2013-01-27 20:15:00,
2013-01-27 15:20:00,85.8,58.0,30.25,SE,128,4.3,7.6,39,0.00,CLR,OVC,0.01,WeatherDisplay:10.37,2013-01-27 20:20:00,
2013-01-27 15:25:00,86.1,56.0,30.25,ENE,71,5.8,9.2,36,0.00,CLR,OVC,0.01,WeatherDisplay:10.37,2013-01-27 20:25:00,
2013-01-27 15:30:00,86.1,56.8,30.25,East,90,3.0,4.6,37,0.00,CLR,OVC,0.01,WeatherDisplay:10.37,2013-01-27 20:30:00,
2013-01-27 15:35:00,86.3,57.0,30.25,East,80,5.0,10.0,37,0.00,CLR,OVC,0.01,WeatherDisplay:10.37,2013-01-27 20:35:00,
2013-01-27 15:40:00,86.4,56.3,30.25,ENE,64,7.3,10.4,36,0.00,CLR,OVC,0.01,WeatherDisplay:10.37,2013-01-27 20:40:00,
2013-01-27 15:45:00,86.5,56.4,30.25,SSW,206,3.4,5.8,36,0.00,CLR,OVC,0.01,WeatherDisplay:10.37,2013-01-27 20:45:00,
2013-01-27 15:50:00,86.9,56.0,30.24,ESE,119,5.0,8.1,35,0.00,CLR,OVC,0.01,WeatherDisplay:10.37,2013-01-27 20:50:00,
2013-01-27 15:55:00,87.2,57.0,30.24,NE,56,6.2,8.2,36,0.00,CLR,OVC,0.01,WeatherDisplay:10.37,2013-01-27 20:55:00,
2013-01-27 16:00:00,86.6,58.0,30.24,North,350,0.0,0.0,38,0.00,CLR,OVC,0.01,WeatherDisplay:10.37,2013-01-27 21:00:00,
2013-01-27 16:05:00,86.3,55.5,30.24,NE,55,5.0,9.0,35,0.00,CLR,OVC,0.01,WeatherDisplay:10.37,2013-01-27 21:05:00,
2013-01-27 16:10:00,86.5,55.6,30.24,East,86,4.4,8.1,35,0.00,CLR,OVC,0.01,WeatherDisplay:10.37,2013-01-27 21:10:00,
2013-01-27 16:15:00,86.7,58.8,30.24,North,360,3.7,7.4,39,0.00,CLR,OVC,0.01,WeatherDisplay:10.37,2013-01-27 21:15:00,
2013-01-27 16:20:00,85.9,60.1,30.24,NE,49,1.7,4.6,42,0.00,CLR,OVC,0.01,WeatherDisplay:10.37,2013-01-27 21:20:00,
2013-01-27 16:25:00,86.0,60.2,30.25,North,6,3.9,5.8,42,0.00,CLR,OVC,0.01,WeatherDisplay:10.37,2013-01-27 21:25:00,
2013-01-27 16:30:00,85.5,59.8,30.25,North,7,4.5,8.1,42,0.00,CLR,OVC,0.01,WeatherDisplay:10.37,2013-01-27 21:30:00,
2013-01-27 16:35:00,84.5,60.8,30.25,NNW,330,4.7,8.1,45,0.00,CLR,OVC,0.01,WeatherDisplay:10.37,2013-01-27 21:35:00,
2013-01-27 16:40:00,84.1,60.5,30.25,NNW,329,3.8,5.8,45,0.00,CLR,OVC,0.01,WeatherDisplay:10.37,2013-01-27 21:40:00,
2013-01-27 16:45:00,84.0,60.4,30.25,North,360,2.4,4.6,45,0.00,CLR,OVC,0.01,WeatherDisplay:10.37,2013-01-27 21:45:00,
2013-01-27 16:50:00,83.6,60.0,30.25,NNW,333,3.0,7.0,45,0.00,CLR,OVC,0.01,WeatherDisplay:10.37,2013-01-27 21:50:00,
2013-01-27 16:55:00,82.9,60.0,30.25,North,356,2.9,4.6,46,0.00,CLR,OVC,0.01,WeatherDisplay:10.37,2013-01-27 21:55:00,
2013-01-27 17:00:00,82.1,60.5,30.25,NNW,340,2.7,4.6,48,0.00,CLR,OVC,0.01,WeatherDisplay:10.37,2013-01-27 22:00:00,
2013-01-27 17:05:00,80.5,60.1,30.25,NW,315,4.4,9.2,50,0.00,CLR,OVC,0.01,WeatherDisplay:10.37,2013-01-27 22:05:00,
2013-01-27 17:10:00,78.9,60.3,30.25,NW,325,3.9,6.9,53,0.00,CLR,OVC,0.01,WeatherDisplay:10.37,2013-01-27 22:10:00,
2013-01-27 17:15:00,77.8,59.8,30.26,WNW,296,2.7,6.9,54,0.00,CLR,OVC,0.01,WeatherDisplay:10.37,2013-01-27 22:15:00,
2013-01-27 17:20:00,76.7,59.3,30.25,NE,37,4.6,6.9,55,0.00,CLR,OVC,0.01,WeatherDisplay:10.37,2013-01-27 22:20:00,
2013-01-27 17:25:00,76.3,59.4,30.26,NNW,342,0.6,5.3,56,0.00,CLR,OVC,0.01,WeatherDisplay:10.37,2013-01-27 22:25:00,
2013-01-27 17:30:00,75.9,59.6,30.26,NNW,337,1.8,4.6,57,0.00,CLR,OVC,0.01,WeatherDisplay:10.37,2013-01-27 22:30:00,
2013-01-27 17:35:00,75.4,59.6,30.26,North,8,2.3,3.5,58,0.00,CLR,OVC,0.01,WeatherDisplay:10.37,2013-01-27 22:35:00,
2013-01-27 17:40:00,75.3,59.5,30.26,NNE,27,0.4,2.3,58,0.00,CLR,OVC,0.01,WeatherDisplay:10.37,2013-01-27 22:40:00,
2013-01-27 17:45:00,74.8,59.5,30.26,NW,323,2.6,4.6,59,0.00,CLR,OVC,0.01,WeatherDisplay:10.37,2013-01-27 22:45:00,
2013-01-27 17:50:00,74.7,59.9,30.27,NNE,16,1.1,2.3,60,0.00,CLR,OVC,0.01,WeatherDisplay:10.37,2013-01-27 22:50:00,
2013-01-27 17:55:00,74.5,60.2,30.27,NNE,13,0.0,1.1,61,0.00,CLR,OVC,0.01,WeatherDisplay:10.37,2013-01-27 22:55:00,
2013-01-27 18:00:00,74.2,60.3,30.27,North,8,1.0,2.3,62,0.00,CLR,OVC,0.01,WeatherDisplay:10.37,2013-01-27 23:00:00,
2013-01-27 18:05:00,73.8,60.0,30.27,NNW,342,2.0,5.0,62,0.00,CLR,OVC,0.01,WeatherDisplay:10.37,2013-01-27 23:05:00,
2013-01-27 18:10:00,73.4,60.0,30.27,NNW,328,3.2,4.6,63,0.00,CLR,OVC,0.01,WeatherDisplay:10.37,2013-01-27 23:10:00,
2013-01-27 18:15:00,72.8,59.9,30.28,North,6,1.5,2.3,64,0.00,CLR,OVC,0.01,WeatherDisplay:10.37,2013-01-27 23:15:00,
2013-01-27 18:20:00,72.6,60.2,30.28,North,3,0.0,1.1,65,0.00,CLR,OVC,0.01,WeatherDisplay:10.37,2013-01-27 23:20:00,
2013-01-27 18:25:00,72.2,60.2,30.28,NNW,335,1.1,2.3,66,0.00,CLR,OVC,0.01,WeatherDisplay:10.37,2013-01-27 23:25:00,
2013-01-27 18:30:00,72.0,60.4,30.28,North,356,1.4,2.3,67,0.00,CLR,OVC,0.01,WeatherDisplay:10.37,2013-01-27 23:30:00,
2013-01-27 18:35:00,71.8,60.7,30.28,NW,318,0.9,2.3,68,0.01,RA,OVC,0.02,WeatherDisplay:10.37,2013-01-27 23:35:00,
2013-01-27 18:40:00,71.5,60.4,30.28,NNE,23,0.6,1.1,68,0.01,RA,OVC,0.02,WeatherDisplay:10.37,2013-01-27 23:40:00,
2013-01-27 18:45:00,71.2,60.5,30.28,North,356,1.2,3.5,69,0.01,CLR,OVC,0.02,WeatherDisplay:10.37,2013-01-27 23:45:00,
2013-01-27 18:50:00,70.8,60.5,30.29,North,352,1.1,2.3,70,0.01,CLR,OVC,0.02,WeatherDisplay:10.37,2013-01-27 23:50:00,
2013-01-27 18:55:00,70.7,60.4,30.29,NE,49,0.0,0.0,70,0.01,CLR,OVC,0.02,WeatherDisplay:10.37,2013-01-27 23:55:00,
2013-01-27 19:00:00,70.8,60.5,30.29,North,10,0.0,0.0,70,0.14,RA,OVC,0.15,WeatherDisplay:10.37,2013-01-28 00:00:00,
2013-01-27 19:05:00,70.5,61.0,30.29,North,10,0.0,0.0,72,0.14,RA,OVC,0.15,WeatherDisplay:10.37,2013-01-28 00:05:00,
2013-01-27 19:10:00,70.3,60.8,30.29,North,10,0.0,0.0,72,0.14,,OVC,0.15,WeatherDisplay:10.37,2013-01-28 00:10:00,
2013-01-27 19:15:00,70.0,60.6,30.29,North,10,0.0,0.0,72,0.14,CLR,OVC,0.15,WeatherDisplay:10.37,2013-01-28 00:15:00,
2013-01-27 19:20:00,69.7,60.7,30.29,North,10,0.0,0.0,73,0.14,CLR,OVC,0.15,WeatherDisplay:10.37,2013-01-28 00:20:00,
2013-01-27 19:25:00,69.5,60.4,30.29,North,10,0.0,0.0,73,0.00,CLR,OVC,0.15,WeatherDisplay:10.37,2013-01-28 00:25:00,
2013-01-27 19:30:00,69.1,60.5,30.30,North,10,0.0,0.0,74,0.14,CLR,OVC,0.15,WeatherDisplay:10.37,2013-01-28 00:30:00,
2013-01-27 19:35:00,68.8,60.6,30.30,North,10,0.0,0.0,75,0.13,CLR,OVC,0.15,WeatherDisplay:10.37,2013-01-28 00:35:00,
2013-01-27 19:40:00,68.8,60.6,30.30,NNW,328,0.1,1.1,75,0.13,CLR,OVC,0.15,WeatherDisplay:10.37,2013-01-28 00:40:00,
2013-01-27 19:45:00,68.6,60.4,30.30,North,352,2.2,4.6,75,0.13,CLR,OVC,0.15,WeatherDisplay:10.37,2013-01-28 00:45:00,
2013-01-27 19:50:00,68.5,60.6,30.30,North,7,3.0,3.6,76,0.13,CLR,OVC,0.15,WeatherDisplay:10.37,2013-01-28 00:50:00,
2013-01-27 19:55:00,68.3,60.9,30.30,NNE,17,0.0,4.0,77,0.00,CLR,OVC,0.15,WeatherDisplay:10.37,2013-01-28 00:55:00,
2013-01-27 20:00:00,68.2,60.7,30.30,NE,34,0.1,1.1,77,0.00,CLR,OVC,0.15,WeatherDisplay:10.37,2013-01-28 01:00:00,
2013-01-27 20:05:00,68.1,61.0,30.30,North,10,0.0,0.0,78,0.00,CLR,OVC,0.15,WeatherDisplay:10.37,2013-01-28 01:05:00,
2013-01-27 20:10:00,68.2,60.7,30.30,NE,38,0.0,0.0,77,0.29,RA,OVC,0.44,WeatherDisplay:10.37,2013-01-28 01:10:00,
2013-01-27 20:15:00,68.0,60.9,30.30,NE,38,0.0,0.0,78,0.29,RA,OVC,0.44,WeatherDisplay:10.37,2013-01-28 01:15:00,
2013-01-27 20:20:00,67.9,60.8,30.30,NE,38,0.0,0.0,78,0.29,CLR,OVC,0.44,WeatherDisplay:10.37,2013-01-28 01:20:00,
2013-01-27 20:25:00,67.7,60.6,30.30,NE,38,0.0,0.0,78,0.29,CLR,OVC,0.44,WeatherDisplay:10.37,2013-01-28 01:25:00,
2013-01-27 20:30:00,67.4,60.3,30.30,NE,38,0.0,0.0,78,0.29,CLR,OVC,0.44,WeatherDisplay:10.37,2013-01-28 01:30:00,
2013-01-27 20:35:00,67.4,60.7,30.30,NE,38,0.0,0.0,79,0.29,CLR,OVC,0.44,WeatherDisplay:10.37,2013-01-28 01:35:00,
2013-01-27 20:40:00,67.3,60.6,30.30,NE,38,0.0,0.0,79,0.29,CLR,OVC,0.44,WeatherDisplay:10.37,2013-01-28 01:40:00,
2013-01-27 20:45:00,67.2,60.5,30.30,NE,38,0.0,0.0,79,0.29,CLR,OVC,0.44,WeatherDisplay:10.37,2013-01-28 01:45:00,
2013-01-27 20:50:00,67.0,60.3,30.30,NE,38,0.0,0.0,79,0.29,CLR,OVC,0.44,WeatherDisplay:10.37,2013-01-28 01:50:00,
2013-01-27 20:55:00,66.9,60.5,30.30,NE,38,0.0,0.0,80,0.29,CLR,OVC,0.44,WeatherDisplay:10.37,2013-01-28 01:55:00,
2013-01-27 21:00:00,66.7,60.3,30.30,NE,38,0.0,0.0,80,0.29,CLR,OVC,0.44,WeatherDisplay:10.37,2013-01-28 02:00:00,
2013-01-27 21:05:00,66.7,60.3,30.31,NE,44,0.0,0.0,80,0.29,CLR,OVC,0.44,WeatherDisplay:10.37,2013-01-28 02:05:00,
2013-01-27 21:10:00,66.4,60.0,30.31,ENE,61,0.4,0.9,80,0.00,CLR,OVC,0.44,WeatherDisplay:10.37,2013-01-28 02:10:00,
2013-01-27 21:15:00,66.4,60.0,30.31,East,95,1.3,4.6,80,0.00,CLR,OVC,0.44,WeatherDisplay:10.37,2013-01-28 02:15:00,
2013-01-27 21:20:00,66.2,60.2,30.31,ESE,102,1.3,2.9,81,0.00,CLR,OVC,0.44,WeatherDisplay:10.37,2013-01-28 02:20:00,
2013-01-27 21:25:00,66.0,60.0,30.31,NNE,30,1.4,2.3,81,0.00,CLR,OVC,0.44,WeatherDisplay:10.37,2013-01-28 02:25:00,
2013-01-27 21:30:00,66.1,59.7,30.31,East,97,1.0,2.3,80,0.00,CLR,OVC,0.44,WeatherDisplay:10.37,2013-01-28 02:30:00,
2013-01-27 21:35:00,66.0,59.7,30.31,SE,145,2.3,3.5,80,0.00,CLR,OVC,0.44,WeatherDisplay:10.37,2013-01-28 02:35:00,
2013-01-27 21:40:00,66.1,59.7,30.31,ENE,73,1.1,2.3,80,0.00,CLR,OVC,0.44,WeatherDisplay:10.37,2013-01-28 02:40:00,
2013-01-27 21:45:00,66.0,59.3,30.31,SE,141,2.7,4.6,79,0.00,CLR,OVC,0.44,WeatherDisplay:10.37,2013-01-28 02:45:00,
2013-01-27 21:50:00,66.0,59.3,30.31,SE,131,2.9,5.1,79,0.00,CLR,OVC,0.44,WeatherDisplay:10.37,2013-01-28 02:50:00,
2013-01-27 21:55:00,66.0,58.9,30.31,ESE,109,3.7,5.8,78,0.00,CLR,OVC,0.44,WeatherDisplay:10.37,2013-01-28 02:55:00,
2013-01-27 22:00:00,66.1,59.0,30.31,SE,128,3.5,5.8,78,0.00,CLR,OVC,0.44,WeatherDisplay:10.37,2013-01-28 03:00:00,
2013-01-27 22:05:00,66.3,58.9,30.31,ESE,102,3.4,7.5,77,0.00,CLR,OVC,0.44,WeatherDisplay:10.37,2013-01-28 03:05:00,
2013-01-27 22:10:00,66.4,59.0,30.31,ENE,73,2.4,4.6,77,0.00,CLR,OVC,0.44,WeatherDisplay:10.37,2013-01-28 03:10:00,
2013-01-27 22:15:00,66.7,59.3,30.31,SE,127,3.5,5.8,77,0.00,CLR,OVC,0.44,WeatherDisplay:10.37,2013-01-28 03:15:00,
2013-01-27 22:20:00,66.8,59.0,30.32,ENE,69,2.3,4.6,76,0.00,CLR,OVC,0.44,WeatherDisplay:10.37,2013-01-28 03:20:00,
2013-01-27 22:25:00,66.7,58.9,30.31,ENE,66,1.7,4.6,76,0.00,CLR,OVC,0.44,WeatherDisplay:10.37,2013-01-28 03:25:00,
2013-01-27 22:30:00,66.8,59.0,30.31,SE,141,3.7,6.6,76,0.00,CLR,OVC,0.44,WeatherDisplay:10.37,2013-01-28 03:30:00,
2013-01-27 22:35:00,66.8,59.0,30.31,ESE,117,4.9,8.1,76,0.00,CLR,OVC,0.44,WeatherDisplay:10.37,2013-01-28 03:35:00,
2013-01-27 22:40:00,66.9,59.1,30.31,ENE,78,2.7,4.6,76,0.00,CLR,OVC,0.44,WeatherDisplay:10.37,2013-01-28 03:40:00,
2013-01-27 22:45:00,66.8,59.0,30.31,SE,127,4.8,6.9,76,0.00,CLR,OVC,0.44,WeatherDisplay:10.37,2013-01-28 03:45:00,
2013-01-27 22:50:00,66.9,59.5,30.31,SE,133,4.1,6.9,77,0.00,CLR,OVC,0.44,WeatherDisplay:10.37,2013-01-28 03:50:00,
2013-01-27 22:55:00,66.8,59.4,30.31,SE,128,4.7,5.8,77,0.00,CLR,OVC,0.44,WeatherDisplay:10.37,2013-01-28 03:55:00,
2013-01-27 23:00:00,66.9,59.5,30.31,ESE,117,3.1,6.1,77,0.00,CLR,OVC,0.44,WeatherDisplay:10.37,2013-01-28 04:00:00,
2013-01-27 23:05:00,66.9,59.5,30.31,East,95,3.2,4.6,77,0.00,CLR,OVC,0.44,WeatherDisplay:10.37,2013-01-28 04:05:00,
2013-01-27 23:10:00,66.8,59.4,30.31,SE,127,2.9,4.6,77,0.00,CLR,OVC,0.44,WeatherDisplay:10.37,2013-01-28 04:10:00,
2013-01-27 23:15:00,66.8,59.4,30.31,ESE,112,2.4,5.8,77,0.00,CLR,OVC,0.44,WeatherDisplay:10.37,2013-01-28 04:15:00,
2013-01-27 23:20:00,66.8,59.4,30.31,ESE,119,2.8,9.3,77,0.00,CLR,OVC,0.44,WeatherDisplay:10.37,2013-01-28 04:20:00,
2013-01-27 23:25:00,66.7,59.6,30.31,NNE,28,4.6,6.9,78,0.00,CLR,OVC,0.44,WeatherDisplay:10.37,2013-01-28 04:25:00,
2013-01-27 23:30:00,66.6,59.5,30.31,ESE,106,3.5,6.1,78,0.00,CLR,OVC,0.44,WeatherDisplay:10.37,2013-01-28 04:30:00,
2013-01-27 23:35:00,66.6,59.5,30.30,ESE,120,3.5,5.8,78,0.00,CLR,OVC,0.44,WeatherDisplay:10.37,2013-01-28 04:35:00,
2013-01-27 23:40:00,66.6,59.5,30.30,SE,138,3.5,8.1,78,0.00,CLR,OVC,0.44,WeatherDisplay:10.37,2013-01-28 04:40:00,
2013-01-27 23:45:00,66.7,59.6,30.30,ENE,61,3.7,5.8,78,0.00,CLR,OVC,0.44,WeatherDisplay:10.37,2013-01-28 04:45:00,
2013-01-27 23:50:00,66.4,59.3,30.30,East,100,0.8,2.7,78,0.00,CLR,OVC,0.44,WeatherDisplay:10.37,2013-01-28 04:50:00,
2013-01-27 23:55:00,66.4,59.3,30.30,ENE,72,0.4,2.5,78,0.00,CLR,OVC,0.44,WeatherDisplay:10.37,2013-01-28 04:55:00,